Time;durP1;ratioP1;P1;durP2;ratioP2;P2;SDS_P1;SDS_P2;PMS_P1;PMS_P2;Temp;Humidity;BMP_temperature;BMP_pressure;BME280_temperature;BME280_humidity;BME280_pressure;Samples;Min_cycle;Max_cycle;Signal;HPM_P1;HPM_P2
2023/02/05 00:00:38;;;;;;;;;;;6.90;99.90;;;;;;5079525;28;19946;-63
2023/02/05 00:03:04;;;;;;;;;;;6.70;99.90;;;;;;5082158;28;19928;-62
2023/02/05 00:05:31;;;;;;;;;;;6.40;99.90;;;;;;5080272;28;19929;-61
2023/02/05 00:07:59;;;;;;;;;;;6.40;99.90;;;;;;5080734;28;19924;-63
2023/02/05 00:10:25;;;;;;;;;;;6.40;99.90;;;;;;5082092;28;20440;-62
2023/02/05 00:12:52;;;;;;;;;;;6.40;99.90;;;;;;5077008;28;20442;-62
2023/02/05 00:15:18;;;;;;;;;;;6.50;99.90;;;;;;5081796;28;19929;-62
2023/02/05 00:17:45;;;;;;;;;;;6.40;99.90;;;;;;5083290;28;19924;-61
2023/02/05 00:20:11;;;;;;;;;;;6.50;99.90;;;;;;5081405;28;19924;-61
2023/02/05 00:22:38;;;;;;;;;;;6.40;99.90;;;;;;5080693;28;19970;-62
2023/02/05 00:25:06;;;;;;;;;;;6.40;99.90;;;;;;5083269;28;20329;-63
2023/02/05 00:27:33;;;;;;;;;;;6.30;99.90;;;;;;5082158;28;19928;-64
2023/02/05 00:29:59;;;;;;;;;;;6.10;99.90;;;;;;5080559;28;19932;-63
2023/02/05 00:32:26;;;;;;;;;;;6.10;99.90;;;;;;5081707;28;19970;-62
2023/02/05 00:34:52;;;;;;;;;;;6.20;99.90;;;;;;5082644;28;19977;-63
2023/02/05 00:37:19;;;;;;;;;;;6.30;99.90;;;;;;5080114;28;20537;-62
2023/02/05 00:39:46;;;;;;;;;;;6.30;99.90;;;;;;5081298;28;20387;-62
2023/02/05 00:42:14;;;;;;;;;;;6.30;99.90;;;;;;5083160;28;19924;-63
2023/02/05 00:44:40;;;;;;;;;;;6.30;99.90;;;;;;5081438;28;19931;-61
2023/02/05 00:47:07;;;;;;;;;;;6.30;99.90;;;;;;5080714;28;19954;-60
2023/02/05 00:49:33;;;;;;;;;;;6.20;99.90;;;;;;5076963;28;19924;-61
2023/02/05 00:52:00;;;;;;;;;;;6.20;99.90;;;;;;5084582;28;19931;-60
2023/02/05 00:54:26;;;;;;;;;;;6.20;99.90;;;;;;5086284;28;20296;-60
2023/02/05 00:56:53;;;;;;;;;;;6.10;99.90;;;;;;5084438;28;20570;-59
2023/02/05 00:59:21;;;;;;;;;;;6.00;99.90;;;;;;5084194;28;19978;-60
2023/02/05 01:01:48;;;;;;;;;;;6.00;99.90;;;;;;5080037;28;19931;-60
2023/02/05 01:04:14;;;;;;;;;;;6.00;99.90;;;;;;5083272;28;20341;-61
2023/02/05 01:06:41;;;;;;;;;;;6.00;99.90;;;;;;5083535;28;19924;-60
2023/02/05 01:09:09;;;;;;;;;;;6.00;99.90;;;;;;5084330;28;21188;-60
2023/02/05 01:11:35;;;;;;;;;;;6.00;99.90;;;;;;5086438;28;19924;-60
2023/02/05 01:14:02;;;;;;;;;;;6.10;99.90;;;;;;5079956;28;19925;-60
2023/02/05 01:16:30;;;;;;;;;;;6.00;99.90;;;;;;5084559;28;19974;-61
2023/02/05 01:18:56;;;;;;;;;;;6.00;99.90;;;;;;5086320;28;20358;-60
2023/02/05 01:21:23;;;;;;;;;;;6.00;99.90;;;;;;5084472;28;20379;-59
2023/02/05 01:23:50;;;;;;;;;;;6.10;99.90;;;;;;5083746;28;19931;-59
2023/02/05 01:26:16;;;;;;;;;;;6.00;99.90;;;;;;5080089;28;19924;-60
2023/02/05 01:28:43;;;;;;;;;;;5.90;99.90;;;;;;5084530;28;20398;-60
2023/02/05 01:31:10;;;;;;;;;;;5.90;99.90;;;;;;5086170;28;20405;-60
2023/02/05 01:33:37;;;;;;;;;;;6.00;99.90;;;;;;5085095;28;19925;-61
2023/02/05 01:36:04;;;;;;;;;;;6.00;99.90;;;;;;5085380;28;19924;-60
2023/02/05 01:38:31;;;;;;;;;;;5.90;99.90;;;;;;5079778;28;20288;-60
2023/02/05 01:40:58;;;;;;;;;;;6.00;99.90;;;;;;5084271;28;19978;-60
2023/02/05 01:43:25;;;;;;;;;;;6.10;99.90;;;;;;5085854;28;19928;-60
2023/02/05 01:46:00;;;;;;;;;;;6.10;99.90;;;;;;5084038;28;19924;-60
2023/02/05 01:48:28;;;;;;;;;;;6.10;99.90;;;;;;5082846;28;19981;-60
2023/02/05 01:50:58;;;;;;;;;;;6.00;99.90;;;;;;5084278;28;19932;-60
2023/02/05 01:53:26;;;;;;;;;;;6.00;99.90;;;;;;5085482;28;19953;-60
2023/02/05 01:55:55;;;;;;;;;;;5.90;99.90;;;;;;5084168;28;19925;-60
2023/02/05 01:58:22;;;;;;;;;;;6.00;99.90;;;;;;5082946;28;19928;-63
2023/02/05 02:00:49;;;;;;;;;;;5.90;99.90;;;;;;5084489;28;19950;-60
2023/02/05 02:03:15;;;;;;;;;;;6.00;99.90;;;;;;5083793;28;19931;-60
2023/02/05 02:05:42;;;;;;;;;;;5.90;99.90;;;;;;5081296;28;19924;-60
2023/02/05 02:08:11;;;;;;;;;;;5.90;99.90;;;;;;5083407;28;20390;-60
2023/02/05 02:10:39;;;;;;;;;;;6.00;99.90;;;;;;5084932;28;19924;-60
2023/02/05 02:13:05;;;;;;;;;;;6.00;99.90;;;;;;5084031;28;19974;-60
2023/02/05 02:15:32;;;;;;;;;;;5.90;99.90;;;;;;5082646;28;19970;-60
2023/02/05 02:18:24;;;;;;;;;;;6.10;99.90;;;;;;5084319;28;19982;-60
2023/02/05 02:20:48;;;;;;;;;;;6.10;99.90;;;;;;5080870;28;19943;-60
2023/02/05 02:23:22;;;;;;;;;;;6.20;99.90;;;;;;5082380;28;19924;-61
2023/02/05 02:25:59;;;;;;;;;;;6.20;99.90;;;;;;5083132;28;19928;-60
2023/02/05 02:28:29;;;;;;;;;;;6.20;99.90;;;;;;5080087;28;19951;-60
2023/02/05 02:30:58;;;;;;;;;;;6.20;99.90;;;;;;5082084;28;19925;-60
2023/02/05 02:33:27;;;;;;;;;;;6.30;99.90;;;;;;5082099;28;19982;-60
2023/02/05 02:35:56;;;;;;;;;;;6.20;99.90;;;;;;5083240;28;19949;-60
2023/02/05 02:38:27;;;;;;;;;;;6.00;99.90;;;;;;5082429;28;19924;-60
2023/02/05 02:40:54;;;;;;;;;;;6.10;99.90;;;;;;5081785;28;19924;-61
2023/02/05 02:43:24;;;;;;;;;;;6.10;99.90;;;;;;5084666;28;20387;-60
2023/02/05 02:45:55;;;;;;;;;;;6.20;99.90;;;;;;5084977;28;20010;-60
2023/02/05 02:48:23;;;;;;;;;;;6.30;99.90;;;;;;5081832;28;20284;-61
2023/02/05 02:50:51;;;;;;;;;;;6.00;99.90;;;;;;5084335;28;19928;-60
2023/02/05 02:53:20;;;;;;;;;;;6.10;99.90;;;;;;5078540;28;19928;-60
2023/02/05 02:55:47;;;;;;;;;;;6.00;99.90;;;;;;5082317;28;19928;-60
2023/02/05 02:58:16;;;;;;;;;;;6.20;99.90;;;;;;5081325;28;19924;-60
2023/02/05 03:00:43;;;;;;;;;;;6.20;99.90;;;;;;5082192;28;19928;-60
2023/02/05 03:03:13;;;;;;;;;;;6.20;99.90;;;;;;5083631;28;19924;-60
2023/02/05 03:05:41;;;;;;;;;;;6.10;99.90;;;;;;5082373;28;19925;-60
2023/02/05 03:08:11;;;;;;;;;;;6.20;99.90;;;;;;5081277;28;19932;-60
2023/02/05 03:10:41;;;;;;;;;;;6.00;99.90;;;;;;5082844;28;19927;-60
2023/02/05 03:13:09;;;;;;;;;;;6.20;99.90;;;;;;5083993;28;19928;-60
2023/02/05 03:15:35;;;;;;;;;;;6.10;99.90;;;;;;5082317;28;19925;-60
2023/02/05 03:18:02;;;;;;;;;;;6.10;99.90;;;;;;5081475;28;19951;-60
2023/02/05 03:20:32;;;;;;;;;;;6.00;99.90;;;;;;5077580;28;19925;-60
2023/02/05 03:22:59;;;;;;;;;;;5.90;99.90;;;;;;5081457;28;19925;-59
2023/02/05 03:25:27;;;;;;;;;;;5.90;99.90;;;;;;5083927;28;19928;-60
2023/02/05 03:27:54;;;;;;;;;;;5.90;99.90;;;;;;5082817;28;19928;-60
2023/02/05 03:30:21;;;;;;;;;;;5.80;99.90;;;;;;5081658;28;19947;-60
2023/02/05 03:32:55;;;;;;;;;;;5.80;99.90;;;;;;5084052;28;19928;-60
2023/02/05 03:35:26;;;;;;;;;;;5.70;99.90;;;;;;5080989;28;19924;-60
2023/02/05 03:38:00;;;;;;;;;;;5.70;99.90;;;;;;5082674;28;19924;-60
2023/02/05 03:40:31;;;;;;;;;;;5.70;99.90;;;;;;5078037;28;19925;-59
2023/02/05 03:43:03;;;;;;;;;;;5.70;99.90;;;;;;5081090;28;19990;-60
2023/02/05 03:45:39;;;;;;;;;;;5.80;99.90;;;;;;5082441;28;19925;-60
2023/02/05 03:48:14;;;;;;;;;;;5.80;99.90;;;;;;5077296;28;19929;-60
2023/02/05 03:50:42;;;;;;;;;;;5.80;99.90;;;;;;5080927;28;19974;-60
2023/02/05 03:53:14;;;;;;;;;;;5.80;99.90;;;;;;5082630;28;20375;-60
2023/02/05 03:55:45;;;;;;;;;;;5.90;99.90;;;;;;5078179;28;20410;-61
2023/02/05 03:58:14;;;;;;;;;;;5.90;99.90;;;;;;5082962;28;19986;-60
2023/02/05 04:00:41;;;;;;;;;;;5.90;99.90;;;;;;5083577;28;19927;-60
2023/02/05 04:03:07;;;;;;;;;;;6.00;99.90;;;;;;5082985;28;19993;-60
2023/02/05 04:05:34;;;;;;;;;;;6.10;99.90;;;;;;5080174;28;19925;-60
2023/02/05 04:08:01;;;;;;;;;;;6.00;99.90;;;;;;5083097;28;19924;-62
2023/02/05 04:10:29;;;;;;;;;;;6.00;99.90;;;;;;5081977;28;20655;-62
2023/02/05 04:12:55;;;;;;;;;;;5.90;99.90;;;;;;5080546;28;19925;-62
2023/02/05 04:15:22;;;;;;;;;;;6.00;99.90;;;;;;5082332;28;19924;-62
2023/02/05 04:17:48;;;;;;;;;;;6.10;99.90;;;;;;5082609;28;19924;-62
2023/02/05 04:20:15;;;;;;;;;;;6.20;99.90;;;;;;5080609;28;19970;-62
2023/02/05 04:22:41;;;;;;;;;;;6.20;99.90;;;;;;5081924;28;19974;-62
2023/02/05 04:25:08;;;;;;;;;;;6.30;99.90;;;;;;5083163;28;19928;-62
2023/02/05 04:27:36;;;;;;;;;;;6.40;99.90;;;;;;5085095;28;19925;-62
2023/02/05 04:30:02;;;;;;;;;;;6.40;99.90;;;;;;5085188;28;20288;-62
2023/02/05 04:32:29;;;;;;;;;;;6.40;99.90;;;;;;5086943;28;19979;-62
2023/02/05 04:34:56;;;;;;;;;;;6.40;99.90;;;;;;5085376;28;20463;-61
2023/02/05 04:37:23;;;;;;;;;;;6.40;99.90;;;;;;5084374;28;19951;-62
2023/02/05 04:39:50;;;;;;;;;;;6.40;99.90;;;;;;5086616;28;19931;-63
2023/02/05 04:42:16;;;;;;;;;;;6.50;99.90;;;;;;5087264;28;19928;-62
2023/02/05 04:44:44;;;;;;;;;;;6.50;99.90;;;;;;5084033;28;19951;-62
2023/02/05 04:47:11;;;;;;;;;;;6.60;99.90;;;;;;5085011;28;19969;-62
2023/02/05 04:49:39;;;;;;;;;;;6.70;99.90;;;;;;5086589;28;19982;-62
2023/02/05 04:52:06;;;;;;;;;;;6.60;99.90;;;;;;5085099;28;19924;-62
2023/02/05 04:54:32;;;;;;;;;;;6.50;99.90;;;;;;5084258;28;19925;-62
2023/02/05 04:56:59;;;;;;;;;;;6.50;99.90;;;;;;5084115;28;19924;-62
2023/02/05 04:59:25;;;;;;;;;;;6.50;99.90;;;;;;5085098;28;19963;-62
2023/02/05 05:01:53;;;;;;;;;;;6.40;99.90;;;;;;5086242;28;19924;-62
2023/02/05 05:04:20;;;;;;;;;;;6.40;99.90;;;;;;5080663;28;19924;-61
2023/02/05 05:06:46;;;;;;;;;;;6.40;99.90;;;;;;5086226;28;19925;-62
2023/02/05 05:09:13;;;;;;;;;;;6.50;99.90;;;;;;5080139;28;19933;-62
2023/02/05 05:11:39;;;;;;;;;;;6.50;99.90;;;;;;5084855;28;20333;-62
2023/02/05 05:14:06;;;;;;;;;;;6.50;99.90;;;;;;5086241;28;19970;-62
2023/02/05 05:16:32;;;;;;;;;;;6.50;99.90;;;;;;5084261;28;19928;-62
2023/02/05 05:19:00;;;;;;;;;;;6.60;99.90;;;;;;5084143;28;19978;-62
2023/02/05 05:21:27;;;;;;;;;;;6.70;99.90;;;;;;5079576;28;20446;-63
2023/02/05 05:23:53;;;;;;;;;;;6.70;99.90;;;;;;5084623;28;19925;-62
2023/02/05 05:26:20;;;;;;;;;;;6.70;99.90;;;;;;5085929;28;19927;-62
2023/02/05 05:28:46;;;;;;;;;;;6.90;99.90;;;;;;5084018;28;20457;-62
2023/02/05 05:31:15;;;;;;;;;;;6.80;99.90;;;;;;5083700;28;19928;-62
2023/02/05 05:33:41;;;;;;;;;;;6.80;99.90;;;;;;5080001;28;19924;-62
2023/02/05 05:36:09;;;;;;;;;;;6.80;99.90;;;;;;5082832;28;19985;-62
2023/02/05 05:38:36;;;;;;;;;;;6.80;99.90;;;;;;5083478;28;19978;-62
2023/02/05 05:43:47;;;;;;;;;;;6.80;99.90;;;;;;5081814;28;19935;-62
2023/02/05 05:46:15;;;;;;;;;;;6.90;99.90;;;;;;5082949;28;19931;-62
2023/02/05 05:48:41;;;;;;;;;;;6.80;99.90;;;;;;5085282;28;19973;-62
2023/02/05 05:51:09;;;;;;;;;;;6.70;99.90;;;;;;5084894;28;19927;-62
2023/02/05 05:53:36;;;;;;;;;;;6.80;99.90;;;;;;5083664;28;19924;-62
2023/02/05 05:56:02;;;;;;;;;;;6.90;99.90;;;;;;5085197;28;19932;-62
2023/02/05 05:58:29;;;;;;;;;;;6.90;99.90;;;;;;5086375;28;19928;-62
2023/02/05 06:00:55;;;;;;;;;;;6.90;99.90;;;;;;5086988;28;19928;-62
2023/02/05 06:03:22;;;;;;;;;;;6.80;99.90;;;;;;5084568;28;19925;-61
2023/02/05 06:05:49;;;;;;;;;;;6.90;99.90;;;;;;5083095;28;19928;-62
2023/02/05 06:08:17;;;;;;;;;;;6.90;99.90;;;;;;5084133;28;19924;-62
2023/02/05 06:10:43;;;;;;;;;;;6.90;99.90;;;;;;5085254;28;19924;-62
2023/02/05 06:13:10;;;;;;;;;;;6.90;99.90;;;;;;5083046;28;19978;-60
2023/02/05 06:15:37;;;;;;;;;;;6.90;99.90;;;;;;5082952;28;19924;-62
2023/02/05 06:18:03;;;;;;;;;;;6.90;99.90;;;;;;5085066;28;20365;-61
2023/02/05 06:20:30;;;;;;;;;;;6.90;99.90;;;;;;5083887;28;19929;-61
2023/02/05 06:22:56;;;;;;;;;;;6.90;99.90;;;;;;5082238;28;19985;-61
2023/02/05 06:25:24;;;;;;;;;;;6.90;99.90;;;;;;5084785;28;19950;-62
2023/02/05 06:27:51;;;;;;;;;;;6.90;99.90;;;;;;5084270;28;19978;-62
2023/02/05 06:30:17;;;;;;;;;;;6.90;99.90;;;;;;5082041;28;19928;-62
2023/02/05 06:32:44;;;;;;;;;;;6.90;99.90;;;;;;5085865;28;19924;-62
2023/02/05 06:35:10;;;;;;;;;;;6.90;99.90;;;;;;5082753;28;19924;-62
2023/02/05 06:37:37;;;;;;;;;;;6.90;99.90;;;;;;5082133;28;19929;-62
2023/02/05 06:40:04;;;;;;;;;;;6.90;99.90;;;;;;5082811;28;19924;-62
2023/02/05 06:42:32;;;;;;;;;;;6.90;99.90;;;;;;5084481;28;19924;-61
2023/02/05 06:44:59;;;;;;;;;;;6.90;99.90;;;;;;5083569;28;19929;-61
2023/02/05 06:47:25;;;;;;;;;;;6.90;99.90;;;;;;5082194;28;19973;-64
2023/02/05 06:49:52;;;;;;;;;;;7.00;99.90;;;;;;5084262;28;19924;-61
2023/02/05 06:52:18;;;;;;;;;;;6.90;99.90;;;;;;5083617;28;19924;-62
2023/02/05 06:54:45;;;;;;;;;;;6.90;99.90;;;;;;5081971;28;19925;-62
2023/02/05 06:57:12;;;;;;;;;;;6.90;99.90;;;;;;5083631;28;20379;-62
2023/02/05 06:59:39;;;;;;;;;;;7.00;99.90;;;;;;5085376;28;19928;-62
2023/02/05 07:02:07;;;;;;;;;;;7.00;99.90;;;;;;5080779;28;19924;-62
2023/02/05 07:04:34;;;;;;;;;;;7.10;99.90;;;;;;5081365;28;19924;-62
2023/02/05 07:07:01;;;;;;;;;;;7.20;99.90;;;;;;5084251;28;19947;-62
2023/02/05 07:09:27;;;;;;;;;;;7.10;99.90;;;;;;5082760;28;20398;-62
2023/02/05 07:11:54;;;;;;;;;;;7.00;99.90;;;;;;5081684;28;20033;-62
2023/02/05 07:14:20;;;;;;;;;;;7.10;99.90;;;;;;5083507;28;19928;-61
2023/02/05 07:16:49;;;;;;;;;;;7.10;99.90;;;;;;5083168;28;20440;-62
2023/02/05 07:19:15;;;;;;;;;;;7.10;99.90;;;;;;5081204;28;20397;-62
2023/02/05 07:21:43;;;;;;;;;;;7.20;99.90;;;;;;5082376;28;20447;-62
2023/02/05 07:24:09;;;;;;;;;;;7.20;99.90;;;;;;5083532;28;19927;-61
2023/02/05 07:26:37;;;;;;;;;;;7.10;99.90;;;;;;5082266;28;19950;-61
2023/02/05 07:29:04;;;;;;;;;;;7.10;99.90;;;;;;5081428;28;19974;-62
2023/02/05 07:31:30;;;;;;;;;;;7.10;99.90;;;;;;5077784;28;19947;-61
2023/02/05 07:33:58;;;;;;;;;;;7.00;99.90;;;;;;5082824;28;20264;-61
2023/02/05 07:36:24;;;;;;;;;;;6.90;99.90;;;;;;5080567;28;20383;-62
2023/02/05 07:38:51;;;;;;;;;;;6.90;99.90;;;;;;5082768;28;20009;-62
2023/02/05 07:41:17;;;;;;;;;;;6.80;99.90;;;;;;5080394;28;19924;-62
2023/02/05 07:43:44;;;;;;;;;;;6.80;99.90;;;;;;5077232;28;19978;-62
2023/02/05 07:46:11;;;;;;;;;;;6.60;99.90;;;;;;5081677;28;19928;-62
2023/02/05 07:48:38;;;;;;;;;;;6.70;99.90;;;;;;5083446;28;20297;-63
2023/02/05 07:51:06;;;;;;;;;;;6.80;99.90;;;;;;5081734;28;19978;-61
2023/02/05 07:53:33;;;;;;;;;;;6.90;99.90;;;;;;5081341;28;19982;-63
2023/02/05 07:56:01;;;;;;;;;;;6.90;99.90;;;;;;5080072;28;20004;-62
2023/02/05 07:58:28;;;;;;;;;;;6.90;99.90;;;;;;5083052;28;19957;-62
2023/02/05 08:00:54;;;;;;;;;;;6.90;99.90;;;;;;5082293;28;19993;-61
2023/02/05 08:03:21;;;;;;;;;;;6.60;99.90;;;;;;5082620;28;19925;-61
2023/02/05 08:05:47;;;;;;;;;;;6.60;99.90;;;;;;5081007;28;19932;-62
2023/02/05 08:08:15;;;;;;;;;;;6.60;99.90;;;;;;5087232;28;20013;-62
2023/02/05 08:10:42;;;;;;;;;;;6.50;99.90;;;;;;5086702;28;19932;-62
2023/02/05 08:13:09;;;;;;;;;;;6.40;99.90;;;;;;5085085;28;19974;-62
2023/02/05 08:15:37;;;;;;;;;;;6.50;99.90;;;;;;5084958;28;19925;-62
2023/02/05 08:18:04;;;;;;;;;;;6.60;99.90;;;;;;5084608;28;20407;-62
2023/02/05 08:20:31;;;;;;;;;;;6.70;99.90;;;;;;5086440;28;20660;-61
2023/02/05 08:22:57;;;;;;;;;;;6.80;99.90;;;;;;5086897;28;19924;-61
2023/02/05 08:25:25;;;;;;;;;;;6.60;99.90;;;;;;5084629;28;19928;-62
2023/02/05 08:27:52;;;;;;;;;;;6.60;99.90;;;;;;5085563;28;19928;-62
2023/02/05 08:30:20;;;;;;;;;;;6.70;99.90;;;;;;5087123;28;19924;-62
2023/02/05 08:32:47;;;;;;;;;;;6.70;99.90;;;;;;5086890;28;20031;-61
2023/02/05 08:35:14;;;;;;;;;;;6.60;99.90;;;;;;5084604;28;20003;-61
2023/02/05 08:37:40;;;;;;;;;;;6.50;99.90;;;;;;5080928;28;19928;-61
2023/02/05 08:40:08;;;;;;;;;;;6.50;99.90;;;;;;5085349;28;19928;-61
2023/02/05 08:42:36;;;;;;;;;;;6.40;99.90;;;;;;5086898;28;20428;-61
2023/02/05 08:45:04;;;;;;;;;;;6.30;99.90;;;;;;5085113;28;19925;-61
2023/02/05 08:47:31;;;;;;;;;;;6.20;99.90;;;;;;5083821;28;19931;-61
2023/02/05 08:49:58;;;;;;;;;;;6.20;99.90;;;;;;5086255;28;19928;-62
2023/02/05 08:52:24;;;;;;;;;;;6.10;99.90;;;;;;5086301;28;19928;-61
2023/02/05 08:54:51;;;;;;;;;;;6.10;99.90;;;;;;5084263;28;20357;-61
2023/02/05 08:57:17;;;;;;;;;;;6.00;99.90;;;;;;5085264;28;19924;-62
2023/02/05 08:59:47;;;;;;;;;;;6.00;99.90;;;;;;5086701;28;19950;-61
2023/02/05 09:02:14;;;;;;;;;;;6.00;99.90;;;;;;5084465;28;19974;-60
2023/02/05 09:04:40;;;;;;;;;;;6.00;99.90;;;;;;5084096;28;19935;-59
2023/02/05 09:07:07;;;;;;;;;;;5.90;99.90;;;;;;5086498;28;19924;-61
2023/02/05 09:09:35;;;;;;;;;;;5.80;99.90;;;;;;5085559;28;19931;-61
2023/02/05 09:12:02;;;;;;;;;;;5.80;99.90;;;;;;5083785;28;20034;-62
2023/02/05 09:14:34;;;;;;;;;;;5.80;99.90;;;;;;5086233;28;19993;-62
2023/02/05 09:17:03;;;;;;;;;;;5.90;99.90;;;;;;5086497;28;19967;-61
2023/02/05 09:19:30;;;;;;;;;;;5.90;99.90;;;;;;5085367;28;20566;-61
2023/02/05 09:21:57;;;;;;;4.18;2.53;;;5.80;99.90;;;;;;5082177;28;20465;-61
2023/02/05 09:24:24;;;;;;;6.72;2.50;;;5.70;99.90;;;;;;5081694;28;21065;-61
2023/02/05 09:26:51;;;;;;;3.78;2.40;;;5.70;99.90;;;;;;5082053;28;20433;-61
2023/02/05 09:29:17;;;;;;;3.80;1.77;;;5.70;99.90;;;;;;5084376;28;20455;-61
2023/02/05 09:31:44;;;;;;;5.93;2.57;;;5.70;99.90;;;;;;5082929;28;20458;-61
2023/02/05 09:34:12;;;;;;;3.42;1.70;;;5.80;99.90;;;;;;5082274;28;20436;-60
2023/02/05 09:36:39;;;;;;;4.90;1.92;;;5.80;99.90;;;;;;5082160;28;20411;-60
2023/02/05 09:39:06;;;;;;;6.70;2.38;;;5.80;99.90;;;;;;5082196;28;20418;-60
2023/02/05 09:41:41;;;;;;;3.13;2.17;;;5.70;99.90;;;;;;5084043;28;20409;-60
2023/02/05 09:44:16;;;;;;;4.20;2.55;;;5.70;99.90;;;;;;5084176;28;20422;-60
2023/02/05 09:46:50;;;;;;;5.53;3.53;;;5.60;99.90;;;;;;5082984;28;20469;-59
2023/02/05 09:49:21;;;;;;;5.25;3.40;;;5.60;99.90;;;;;;5078039;28;20411;-60
2023/02/05 09:51:52;;;;;;;5.05;3.47;;;5.70;99.90;;;;;;5081485;28;20411;-60
2023/02/05 09:54:26;;;;;;;5.93;3.28;;;5.70;99.90;;;;;;5078881;28;20465;-60
2023/02/05 09:56:55;;;;;;;6.15;3.30;;;5.70;99.90;;;;;;5080824;28;20794;-60
2023/02/05 09:59:25;;;;;;;7.50;3.78;;;5.70;99.90;;;;;;5082774;28;20410;-61
2023/02/05 10:01:53;;;;;;;5.40;3.65;;;5.70;99.90;;;;;;5083413;28;20422;-60
2023/02/05 10:04:22;;;;;;;5.38;3.20;;;5.80;99.90;;;;;;5078580;28;20846;-60
2023/02/05 10:07:02;;;;;;;5.57;2.67;;;5.80;99.90;;;;;;5083704;28;20413;-60
2023/02/05 10:09:44;;;;;;;4.68;2.17;;;5.90;99.90;;;;;;5083508;28;20421;-61
2023/02/05 10:12:22;;;;;;;4.50;2.15;;;5.80;99.90;;;;;;5067016;28;20420;-60
2023/02/05 10:15:00;;;;;;;5.65;2.45;;;5.90;99.90;;;;;;5081179;28;20485;-60
2023/02/05 10:17:40;;;;;;;4.65;2.22;;;6.00;99.90;;;;;;5075778;28;20888;-60
2023/02/05 10:20:21;;;;;;;5.43;2.35;;;6.00;99.90;;;;;;5078673;28;20406;-60
2023/02/05 10:23:00;;;;;;;5.47;2.47;;;6.00;99.90;;;;;;5075638;28;20489;-60
2023/02/05 10:25:55;;;;;;;6.05;2.50;;;6.00;99.90;;;;;;5073541;28;20556;-63
2023/02/05 10:28:50;;;;;;;5.72;2.90;;;5.90;99.90;;;;;;5075010;28;20431;-63
2023/02/05 10:31:23;;;;;;;6.78;4.30;;;6.00;99.90;;;;;;5080046;28;20901;-63
2023/02/05 10:33:54;;;;;;;9.02;4.55;;;6.00;99.90;;;;;;5076580;28;20499;-64
2023/02/05 10:36:24;;;;;;;7.63;4.63;;;5.90;99.90;;;;;;5075142;28;20781;-63
2023/02/05 10:38:54;;;;;;;7.70;4.55;;;6.00;99.90;;;;;;5079626;28;20430;-61
2023/02/05 10:41:27;;;;;;;11.45;5.57;;;6.00;99.90;;;;;;5077209;28;20918;-60
2023/02/05 10:44:03;;;;;;;9.10;5.45;;;6.00;99.90;;;;;;5079080;28;20422;-61
2023/02/05 10:46:34;;;;;;;10.00;5.10;;;6.00;99.90;;;;;;5076828;28;20408;-60
2023/02/05 10:49:08;;;;;;;11.27;5.45;;;6.00;99.90;;;;;;5078374;28;20423;-61
2023/02/05 10:51:40;;;;;;;10.60;5.13;;;6.10;99.90;;;;;;5078296;28;20423;-58
2023/02/05 10:54:16;;;;;;;9.63;4.93;;;6.00;99.90;;;;;;5074986;28;20415;-59
2023/02/05 10:56:44;;;;;;;9.05;5.07;;;6.10;99.90;;;;;;5079120;28;20415;-62
2023/02/05 10:59:19;;;;;;;8.70;4.43;;;6.10;99.90;;;;;;5079846;28;20496;-60
2023/02/05 11:01:46;;;;;;;12.27;4.80;;;6.00;99.90;;;;;;5075337;28;20419;-56
2023/02/05 11:04:16;;;;;;;11.23;4.60;;;6.10;99.90;;;;;;5081332;28;20422;-61
2023/02/05 11:06:47;;;;;;;8.93;4.15;;;6.10;99.90;;;;;;5072347;28;20449;-61
2023/02/05 11:09:32;;;;;;;6.70;4.05;;;6.20;99.90;;;;;;5079224;28;20418;-61
2023/02/05 11:12:02;;;;;;;10.60;4.18;;;6.20;99.90;;;;;;5073446;28;20901;-61
2023/02/05 11:14:32;;;;;;;10.20;4.20;;;6.20;99.90;;;;;;5057681;28;20477;-60
2023/02/05 11:17:03;;;;;;;9.20;4.38;;;6.20;99.90;;;;;;5076298;28;20940;-61
2023/02/05 11:19:30;;;;;;;8.73;4.30;;;6.10;99.90;;;;;;5073109;28;20497;-62
2023/02/05 11:22:00;;;;;;;7.50;4.32;;;6.00;99.90;;;;;;5066647;28;20764;-63
2023/02/05 11:24:31;;;;;;;8.05;4.00;;;6.10;99.90;;;;;;5072754;28;20471;-60
2023/02/05 11:27:31;;;;;;;7.32;3.80;;;5.90;99.90;;;;;;5080059;28;20414;-62
2023/02/05 11:30:15;;;;;;;7.63;4.23;;;6.00;99.90;;;;;;4976995;28;20436;-61
2023/02/05 11:32:42;;;;;;;6.65;4.70;;;5.90;99.90;;;;;;4970219;28;20438;-62
2023/02/05 11:35:17;;;;;;;10.67;4.13;;;5.90;99.90;;;;;;5038600;28;20492;-62
2023/02/05 11:37:47;;;;;;;9.17;4.70;;;5.90;99.90;;;;;;5076496;28;20412;-62
2023/02/05 11:40:22;;;;;;;6.30;3.75;;;5.80;99.90;;;;;;5078701;28;20455;-62
2023/02/05 11:43:02;;;;;;;7.60;5.00;;;5.90;99.90;;;;;;5079656;28;20456;-62
2023/02/05 11:45:30;;;;;;;9.52;4.40;;;5.90;99.90;;;;;;5074806;28;20423;-63
2023/02/05 11:47:57;;;;;;;9.40;4.53;;;5.90;99.90;;;;;;5079827;28;20440;-64
2023/02/05 11:50:26;;;;;;;6.60;3.63;;;5.90;99.90;;;;;;5078400;28;20427;-62
2023/02/05 11:52:55;;;;;;;7.75;4.00;;;5.90;99.90;;;;;;5076736;28;20886;-64
2023/02/05 11:55:28;;;;;;;7.18;4.13;;;5.90;99.90;;;;;;5069028;28;20506;-63
2023/02/05 11:57:59;;;;;;;;;;;5.80;99.90;;;;;;5075638;28;20967;-62
2023/02/05 12:00:26;;;;;;;;;;;5.90;99.90;;;;;;5076120;28;20260;-62
2023/02/05 12:03:02;;;;;;;;;;;5.80;99.90;;;;;;5072085;28;19930;-62
2023/02/05 12:05:30;;;;;;;;;;;5.80;99.90;;;;;;5073128;28;19924;-62
2023/02/05 12:08:01;;;;;;;;;;;5.90;99.90;;;;;;5073006;28;19977;-62
2023/02/05 12:10:30;;;;;;;;;;;5.90;99.90;;;;;;5072920;28;19924;-62
2023/02/05 12:13:02;;;;;;;;;;;5.90;99.90;;;;;;5075907;28;19920;-62
2023/02/05 12:15:33;;;;;;;;;;;5.90;99.90;;;;;;5078436;28;19923;-61
2023/02/05 12:18:07;;;;;;;;;;;5.80;99.90;;;;;;5079115;28;20457;-62
2023/02/05 12:20:38;;;;;;;;;;;5.80;99.90;;;;;;5080799;28;19920;-62
2023/02/05 12:23:15;;;;;;;;;;;5.90;99.90;;;;;;5080071;28;19924;-62
2023/02/05 12:25:46;;;;;;;;;;;5.80;99.90;;;;;;5076602;28;20724;-62
2023/02/05 12:28:22;;;;;;;;;;;5.80;99.90;;;;;;5081556;28;19924;-62
2023/02/05 12:30:59;;;;;;;;;;;5.80;99.90;;;;;;5082999;28;19924;-63
2023/02/05 12:33:51;;;;;;;;;;;5.90;99.90;;;;;;5074676;28;20666;-61
2023/02/05 12:36:23;;;;;;;;;;;5.70;99.90;;;;;;5080387;28;20371;-61
2023/02/05 12:38:58;;;;;;;;;;;5.80;99.90;;;;;;5076137;28;20395;-62
2023/02/05 12:41:30;;;;;;;;;;;5.90;99.90;;;;;;5061134;28;19920;-59
2023/02/05 12:44:02;;;;;;;;;;;5.80;99.90;;;;;;5078407;28;19931;-63
2023/02/05 12:46:41;;;;;;;;;;;5.90;99.90;;;;;;5075706;28;19973;-60
2023/02/05 12:49:18;;;;;;;;;;;5.80;99.90;;;;;;5084479;28;19927;-61
2023/02/05 12:51:55;;;;;;;;;;;5.80;99.90;;;;;;5084401;28;19969;-57
2023/02/05 12:54:35;;;;;;;;;;;5.70;99.90;;;;;;5083880;28;19977;-61
2023/02/05 12:57:04;;;;;;;;;;;5.60;99.90;;;;;;5081455;28;19936;-61
2023/02/05 12:59:35;;;;;;;;;;;5.80;99.90;;;;;;5081877;28;19977;-59
2023/02/05 13:02:04;;;;;;;;;;;5.80;99.90;;;;;;5081934;28;20468;-62
2023/02/05 13:04:34;;;;;;;;;;;5.90;99.90;;;;;;5083331;28;19928;-57
2023/02/05 13:07:07;;;;;;;;;;;5.80;99.90;;;;;;5084717;28;19981;-61
2023/02/05 13:09:38;;;;;;;;;;;6.30;99.90;;;;;;5078439;28;19957;-64
2023/02/05 13:12:08;;;;;;;;;;;5.80;99.90;;;;;;5081835;28;20280;-62
2023/02/05 13:14:37;;;;;;;;;;;5.60;99.90;;;;;;5078754;28;19947;-64
2023/02/05 13:17:06;;;;;;;;;;;5.60;99.90;;;;;;5082025;28;19970;-63
2023/02/05 13:19:34;;;;;;;;;;;5.70;99.90;;;;;;5078494;28;20345;-62
2023/02/05 13:30:36;;;;;;;;;;;5.50;99.90;;;;;;5080034;28;20382;-60
2023/02/05 13:33:05;;;;;;;;;;;5.40;99.90;;;;;;5083841;28;19924;-62
2023/02/05 13:35:33;;;;;;;;;;;5.20;99.90;;;;;;5080952;28;20294;-63
2023/02/05 13:38:09;;;;;;;;;;;5.30;99.90;;;;;;5083841;28;19924;-63
2023/02/05 13:40:43;;;;;;;;;;;5.30;99.90;;;;;;5082933;28;20007;-63
2023/02/05 13:43:25;;;;;;;;;;;5.50;99.90;;;;;;5078088;28;19924;-66
2023/02/05 13:46:02;;;;;;;;;;;5.40;99.90;;;;;;5075949;28;19927;-60
2023/02/05 13:48:47;;;;;;;;;;;5.50;99.90;;;;;;5084642;28;19920;-62
2023/02/05 13:51:22;;;;;;;;;;;5.40;99.90;;;;;;5084717;28;19920;-61
2023/02/05 13:53:57;;;;;;;;;;;5.30;99.90;;;;;;5085577;28;19965;-62
2023/02/05 13:56:33;;;;;;;;;;;5.40;99.90;;;;;;5083274;28;19968;-62
2023/02/05 13:59:00;;;;;;;;;;;5.50;99.90;;;;;;5075276;28;20425;-62
2023/02/05 14:01:30;;;;;;;;;;;5.60;99.90;;;;;;5075345;28;19942;-62
2023/02/05 14:03:58;;;;;;;;;;;5.60;99.90;;;;;;5078904;28;19920;-62
2023/02/05 14:06:28;;;;;;;;;;;5.50;99.90;;;;;;5082086;28;19973;-62
2023/02/05 14:08:58;;;;;;;;;;;5.60;99.90;;;;;;5075172;28;19928;-62
2023/02/05 14:11:25;;;;;;;;;;;5.40;99.90;;;;;;5081163;28;20029;-62
2023/02/05 14:14:10;;;;;;;;;;;5.40;99.90;;;;;;5083252;28;19920;-61
2023/02/05 14:16:38;;;;;;;;;;;5.50;99.90;;;;;;5078918;28;19927;-61
2023/02/05 14:19:28;;;;;;;;;;;5.30;99.90;;;;;;5082638;28;19945;-61
2023/02/05 14:22:00;;;;;;;;;;;5.40;99.90;;;;;;5057887;28;20333;-62
2023/02/05 14:24:37;;;;;;;;;;;5.40;99.90;;;;;;5069275;28;19920;-62
2023/02/05 14:27:04;;;;;;;;;;;5.40;99.90;;;;;;5067616;28;19920;-64
2023/02/05 14:29:41;;;;;;;;;;;5.30;99.90;;;;;;5066781;28;19924;-61
2023/02/05 14:32:11;;;;;;;;;;;5.50;99.90;;;;;;5068253;28;19924;-62
2023/02/05 14:34:44;;;;;;;;;;;5.40;99.90;;;;;;5080093;28;19920;-62